Time;durP1;ratioP1;P1;durP2;ratioP2;P2;SDS_P1;SDS_P2;PMS_P1;PMS_P2;Temp;Humidity;BMP_temperature;BMP_pressure;BME280_temperature;BME280_humidity;BME280_pressure;Samples;Min_cycle;Max_cycle;Signal;HPM_P1;HPM_P2
2023/12/18 00:02:09;;;;;;;;;2.00;2.00;;;;;;;;5099958;27;45416;-73
2023/12/18 00:04:34;;;;;;;;;3.00;2.25;;;;;;;;5099610;27;45353;-72
2023/12/18 00:06:59;;;;;;;;;3.75;3.75;;;;;;;;5099617;27;45421;-73
2023/12/18 00:09:25;;;;;;;;;2.00;2.00;;;;;;;;5099945;27;45563;-73
2023/12/18 00:11:50;;;;;;;;;2.00;2.00;;;;;;;;5100087;27;45402;-73
2023/12/18 00:14:16;;;;;;;;;2.25;1.50;;;;;;;;5099376;27;46209;-73
2023/12/18 00:16:41;;;;;;;;;6.50;5.50;;;;;;;;5099667;27;45778;-73
2023/12/18 00:19:06;;;;;;;;;3.25;2.75;;;;;;;;5099623;27;45531;-73
2023/12/18 00:21:32;;;;;;;;;11.50;10.00;;;;;;;;5099913;27;45212;-73
2023/12/18 00:23:57;;;;;;;;;35.00;31.00;;;;;;;;5100953;27;45891;-74
2023/12/18 00:26:23;;;;;;;;;49.75;43.50;;;;;;;;5103042;27;45469;-73
2023/12/18 00:28:49;;;;;;;;;7.50;6.00;;;;;;;;5100584;27;45352;-73
2023/12/18 00:31:15;;;;;;;;;17.50;15.25;;;;;;;;5099200;27;45467;-73
2023/12/18 00:33:40;;;;;;;;;14.50;13.25;;;;;;;;5098902;27;46107;-73
2023/12/18 00:36:05;;;;;;;;;9.00;8.25;;;;;;;;5099127;27;45357;-73
2023/12/18 00:38:31;;;;;;;;;9.00;8.50;;;;;;;;5099251;27;45339;-73
2023/12/18 00:40:56;;;;;;;;;9.00;7.25;;;;;;;;5099425;27;45355;-73
2023/12/18 00:43:22;;;;;;;;;9.25;8.00;;;;;;;;5099170;27;45494;-73
2023/12/18 00:45:47;;;;;;;;;9.00;7.25;;;;;;;;5098919;27;45369;-73
2023/12/18 00:48:12;;;;;;;;;2.75;2.00;;;;;;;;5099055;27;45491;-73
2023/12/18 00:50:38;;;;;;;;;2.00;2.00;;;;;;;;5099231;27;45431;-73
2023/12/18 00:53:03;;;;;;;;;4.75;3.25;;;;;;;;5098435;27;45578;-73
2023/12/18 00:55:28;;;;;;;;;2.00;1.00;;;;;;;;5097426;27;45594;-72
2023/12/18 00:57:55;;;;;;;;;2.00;1.75;;;;;;;;5099104;27;45230;-72
2023/12/18 01:00:20;;;;;;;;;2.00;2.00;;;;;;;;5099504;27;45234;-73
2023/12/18 01:02:46;;;;;;;;;2.75;2.50;;;;;;;;5098564;27;46203;-73
2023/12/18 01:05:13;;;;;;;;;2.75;1.75;;;;;;;;5098741;27;45302;-73
2023/12/18 01:07:39;;;;;;;;;2.00;2.00;;;;;;;;5098852;27;45312;-73
2023/12/18 01:10:05;;;;;;;;;2.00;1.00;;;;;;;;5098851;27;45539;-73
2023/12/18 01:12:30;;;;;;;;;1.25;1.25;;;;;;;;5098423;27;46323;-73
2023/12/18 01:14:56;;;;;;;;;3.50;3.50;;;;;;;;5098524;27;45412;-72
2023/12/18 01:17:21;;;;;;;;;5.50;2.00;;;;;;;;5098916;27;45595;-73
2023/12/18 01:19:46;;;;;;;;;2.00;2.00;;;;;;;;5098672;27;45594;-73
2023/12/18 01:22:12;;;;;;;;;2.00;2.00;;;;;;;;5098253;27;45521;-73
2023/12/18 01:24:37;;;;;;;;;4.25;4.00;;;;;;;;5098205;27;45288;-73
2023/12/18 01:27:03;;;;;;;;;5.00;3.50;;;;;;;;5098439;27;45533;-73
2023/12/18 01:29:28;;;;;;;;;5.00;5.00;;;;;;;;5098799;27;45391;-73
2023/12/18 01:31:53;;;;;;;;;5.00;3.50;;;;;;;;5096989;27;46796;-72
2023/12/18 01:34:19;;;;;;;;;2.75;2.75;;;;;;;;5096850;27;45328;-73
2023/12/18 01:36:44;;;;;;;;;4.50;4.00;;;;;;;;5097880;27;45546;-73
2023/12/18 01:39:09;;;;;;;;;5.00;4.00;;;;;;;;5098490;27;45499;-73
2023/12/18 01:41:35;;;;;;;;;3.50;3.50;;;;;;;;5096755;27;45487;-73
2023/12/18 01:44:00;;;;;;;;;2.00;2.00;;;;;;;;5098101;27;45355;-73
2023/12/18 01:46:25;;;;;;;;;2.00;2.00;;;;;;;;5098433;27;45794;-73
2023/12/18 01:48:51;;;;;;;;;4.75;4.50;;;;;;;;5098253;27;45321;-73
2023/12/18 01:51:18;;;;;;;;;2.00;2.00;;;;;;;;5098082;27;45483;-73
2023/12/18 01:53:45;;;;;;;;;1.50;1.50;;;;;;;;5096444;27;45396;-73
2023/12/18 01:56:14;;;;;;;;;0.75;0.75;;;;;;;;5098033;27;45513;-73
2023/12/18 01:58:40;;;;;;;;;3.25;2.00;;;;;;;;5098128;27;45330;-73
2023/12/18 02:01:05;;;;;;;;;1.25;1.00;;;;;;;;5097628;27;45459;-73
2023/12/18 02:03:31;;;;;;;;;1.00;1.00;;;;;;;;5097843;27;45526;-73
2023/12/18 02:05:56;;;;;;;;;2.00;1.00;;;;;;;;5098308;27;45469;-73
2023/12/18 02:08:22;;;;;;;;;1.00;1.00;;;;;;;;5098085;27;45372;-73
2023/12/18 02:10:47;;;;;;;;;1.50;1.00;;;;;;;;5097762;27;46104;-73
2023/12/18 02:13:13;;;;;;;;;1.50;1.00;;;;;;;;5097706;27;45520;-73
2023/12/18 02:15:39;;;;;;;;;1.25;1.00;;;;;;;;5097862;27;45426;-73
2023/12/18 02:18:04;;;;;;;;;1.00;1.00;;;;;;;;5098068;27;45496;-73
2023/12/18 02:20:30;;;;;;;;;2.00;1.00;;;;;;;;5097591;27;45347;-72
2023/12/18 02:22:55;;;;;;;;;0.00;0.00;;;;;;;;5098087;27;45316;-73
2023/12/18 02:25:21;;;;;;;;;1.75;1.00;;;;;;;;5097807;27;45381;-74
2023/12/18 02:27:48;;;;;;;;;2.00;1.00;;;;;;;;5097940;27;45394;-73
2023/12/18 02:30:15;;;;;;;;;1.00;0.25;;;;;;;;5097457;27;46204;-73
2023/12/18 02:32:40;;;;;;;;;0.00;0.00;;;;;;;;5097435;27;45610;-73
2023/12/18 02:35:09;;;;;;;;;1.25;0.00;;;;;;;;5097632;27;45521;-73
2023/12/18 02:37:35;;;;;;;;;0.00;0.00;;;;;;;;5097790;27;45293;-72
2023/12/18 02:40:01;;;;;;;;;0.00;0.00;;;;;;;;5097219;27;46157;-71
2023/12/18 02:42:26;;;;;;;;;1.00;0.00;;;;;;;;5096313;27;45329;-72
2023/12/18 02:44:52;;;;;;;;;1.00;1.00;;;;;;;;5097608;27;45440;-73
2023/12/18 02:47:17;;;;;;;;;2.25;1.00;;;;;;;;5097641;27;45263;-73
2023/12/18 02:49:43;;;;;;;;;1.00;1.00;;;;;;;;5100755;27;45418;-73
2023/12/18 02:52:08;;;;;;;;;1.75;1.00;;;;;;;;5100808;27;45430;-73
2023/12/18 02:54:33;;;;;;;;;0.25;0.25;;;;;;;;5100713;27;45370;-73
2023/12/18 02:56:59;;;;;;;;;2.00;2.00;;;;;;;;5099930;27;45232;-73
2023/12/18 02:59:24;;;;;;;;;1.00;1.00;;;;;;;;5100439;27;46155;-74
2023/12/18 03:01:50;;;;;;;;;1.75;1.00;;;;;;;;5100723;27;45490;-73
2023/12/18 03:04:18;;;;;;;;;2.00;2.00;;;;;;;;5100783;27;45333;-73
2023/12/18 03:06:44;;;;;;;;;1.00;1.00;;;;;;;;5100954;27;45255;-73
2023/12/18 03:09:09;;;;;;;;;3.75;1.00;;;;;;;;5100352;27;45341;-73
2023/12/18 03:11:35;;;;;;;;;1.00;1.00;;;;;;;;5100518;27;45534;-73
2023/12/18 03:14:00;;;;;;;;;1.00;1.00;;;;;;;;5100851;27;45519;-73
2023/12/18 03:16:25;;;;;;;;;1.00;1.00;;;;;;;;5100669;27;45388;-73
2023/12/18 03:18:51;;;;;;;;;1.00;1.00;;;;;;;;5100373;27;45319;-73
2023/12/18 03:21:16;;;;;;;;;0.75;0.75;;;;;;;;5099082;27;45336;-73
2023/12/18 03:23:41;;;;;;;;;0.25;0.25;;;;;;;;5100573;27;45402;-73
2023/12/18 03:26:07;;;;;;;;;0.25;0.25;;;;;;;;5100589;27;45549;-72
2023/12/18 03:28:33;;;;;;;;;1.00;1.00;;;;;;;;5100038;27;45527;-73
2023/12/18 03:30:58;;;;;;;;;1.00;1.00;;;;;;;;5099267;27;45326;-73
2023/12/18 03:33:24;;;;;;;;;1.00;1.00;;;;;;;;5100189;27;45459;-73
2023/12/18 03:35:49;;;;;;;;;0.50;0.50;;;;;;;;5100374;27;45449;-73
2023/12/18 03:38:14;;;;;;;;;0.00;0.00;;;;;;;;5100073;27;46073;-73
2023/12/18 03:40:40;;;;;;;;;0.00;0.00;;;;;;;;5100088;27;45293;-72
2023/12/18 03:43:05;;;;;;;;;1.00;1.00;;;;;;;;5100010;27;45179;-72
2023/12/18 03:45:30;;;;;;;;;2.00;1.00;;;;;;;;5100554;27;45439;-73
2023/12/18 03:47:56;;;;;;;;;1.00;1.00;;;;;;;;5099678;27;46104;-73
2023/12/18 03:50:21;;;;;;;;;0.00;0.00;;;;;;;;5099806;27;45551;-73
2023/12/18 03:52:46;;;;;;;;;0.50;0.00;;;;;;;;5099699;27;45421;-73
2023/12/18 03:55:12;;;;;;;;;1.00;1.00;;;;;;;;5100100;27;45500;-73
2023/12/18 03:57:37;;;;;;;;;1.00;1.00;;;;;;;;5099592;27;45292;-73
2023/12/18 04:00:03;;;;;;;;;1.00;0.00;;;;;;;;5099655;27;45531;-73
2023/12/18 04:02:28;;;;;;;;;0.75;0.75;;;;;;;;5099983;27;45281;-73
2023/12/18 04:04:54;;;;;;;;;0.75;0.75;;;;;;;;5099977;27;45361;-73
2023/12/18 04:07:19;;;;;;;;;1.00;1.00;;;;;;;;5099689;27;45933;-73
2023/12/18 04:09:45;;;;;;;;;1.00;1.00;;;;;;;;5100501;27;45549;-73
2023/12/18 04:12:10;;;;;;;;;1.00;1.00;;;;;;;;5103508;27;45723;-74
2023/12/18 04:14:35;;;;;;;;;9.00;9.00;;;;;;;;5103232;27;45466;-72
2023/12/18 04:17:01;;;;;;;;;3.00;3.00;;;;;;;;5099605;27;46114;-73
2023/12/18 04:19:26;;;;;;;;;4.00;4.00;;;;;;;;5099247;27;45220;-73
2023/12/18 04:21:51;;;;;;;;;1.00;1.00;;;;;;;;5099602;27;45416;-73
2023/12/18 04:24:17;;;;;;;;;0.00;0.00;;;;;;;;5099740;27;45471;-73
2023/12/18 04:26:43;;;;;;;;;1.00;0.50;;;;;;;;5099234;27;45402;-73
2023/12/18 04:29:08;;;;;;;;;0.00;0.00;;;;;;;;5099221;27;45510;-72
2023/12/18 04:31:34;;;;;;;;;1.25;1.00;;;;;;;;5098156;27;45410;-73
2023/12/18 04:33:59;;;;;;;;;0.50;0.00;;;;;;;;5099471;27;45320;-73
2023/12/18 04:36:24;;;;;;;;;0.25;0.25;;;;;;;;5099048;27;45318;-72
2023/12/18 04:38:50;;;;;;;;;0.75;0.75;;;;;;;;5099116;27;45429;-73
2023/12/18 04:41:22;;;;;;;;;4.75;2.00;;;;;;;;5097670;27;45661;-73
2023/12/18 04:43:48;;;;;;;;;1.00;1.00;;;;;;;;5099194;27;45455;-73
2023/12/18 04:46:13;;;;;;;;;1.75;1.75;;;;;;;;5098719;27;45992;-73
2023/12/18 04:48:39;;;;;;;;;1.50;1.50;;;;;;;;5098949;27;45231;-72
2023/12/18 04:51:05;;;;;;;;;3.50;3.50;;;;;;;;5099491;27;45298;-73
2023/12/18 04:53:32;;;;;;;;;2.00;2.00;;;;;;;;5098955;27;45430;-73
2023/12/18 04:55:57;;;;;;;;;2.00;2.00;;;;;;;;5098770;27;46090;-73
2023/12/18 04:58:22;;;;;;;;;4.75;4.00;;;;;;;;5098718;27;45277;-73
2023/12/18 05:00:48;;;;;;;;;3.50;3.00;;;;;;;;5098901;27;45487;-73
2023/12/18 05:03:13;;;;;;;;;2.50;2.50;;;;;;;;5099180;27;45482;-73
2023/12/18 05:05:39;;;;;;;;;2.00;2.00;;;;;;;;5098063;27;46077;-71
2023/12/18 05:08:04;;;;;;;;;0.75;0.50;;;;;;;;5097670;27;45443;-73
2023/12/18 05:10:29;;;;;;;;;2.00;1.00;;;;;;;;5097897;27;45539;-73
2023/12/18 05:12:55;;;;;;;;;3.00;1.00;;;;;;;;5082733;27;45543;-71
2023/12/18 05:15:20;;;;;;;;;1.00;1.00;;;;;;;;5077383;27;46130;-71
2023/12/18 05:17:45;;;;;;;;;1.00;1.00;;;;;;;;5077341;27;45424;-72
2023/12/18 05:20:12;;;;;;;;;1.00;1.00;;;;;;;;5076502;27;45620;-73
2023/12/18 05:22:38;;;;;;;;;2.00;2.00;;;;;;;;5078166;28;45457;-73
2023/12/18 05:25:03;;;;;;;;;2.00;2.00;;;;;;;;5077467;28;45442;-73
2023/12/18 05:27:29;;;;;;;;;1.00;1.00;;;;;;;;5077489;27;45416;-72
2023/12/18 05:29:54;;;;;;;;;2.00;1.00;;;;;;;;5077335;27;45775;-72
2023/12/18 05:32:19;;;;;;;;;1.00;1.00;;;;;;;;5078013;27;45314;-73
2023/12/18 05:34:45;;;;;;;;;2.00;2.00;;;;;;;;5077858;27;45383;-73
2023/12/18 05:37:10;;;;;;;;;4.00;4.00;;;;;;;;5077755;27;45316;-72
2023/12/18 05:39:36;;;;;;;;;1.00;1.00;;;;;;;;5078193;27;45560;-73
2023/12/18 05:42:01;;;;;;;;;2.50;2.00;;;;;;;;5078041;27;45156;-73
2023/12/18 05:44:26;;;;;;;;;2.00;2.00;;;;;;;;5077646;27;45203;-73
2023/12/18 05:46:52;;;;;;;;;2.50;2.00;;;;;;;;5077729;27;45206;-73
2023/12/18 05:49:17;;;;;;;;;1.25;1.25;;;;;;;;5077682;27;45635;-72
2023/12/18 05:51:42;;;;;;;;;4.00;4.00;;;;;;;;5077711;27;45491;-73
2023/12/18 05:54:08;;;;;;;;;1.00;1.00;;;;;;;;5077394;27;45227;-73
2023/12/18 05:56:33;;;;;;;;;2.00;1.50;;;;;;;;5077469;27;45400;-73
2023/12/18 05:58:59;;;;;;;;;2.00;2.00;;;;;;;;5077627;27;45368;-73
2023/12/18 06:01:24;;;;;;;;;1.25;1.25;;;;;;;;5077803;28;45334;-73
2023/12/18 06:03:50;;;;;;;;;1.00;1.00;;;;;;;;5077385;27;46009;-73
2023/12/18 06:06:15;;;;;;;;;1.00;1.00;;;;;;;;5077508;27;45257;-73
2023/12/18 06:08:40;;;;;;;;;1.00;1.00;;;;;;;;5078082;27;45472;-73
2023/12/18 06:11:06;;;;;;;;;1.00;1.00;;;;;;;;5078216;27;45563;-73
2023/12/18 06:13:31;;;;;;;;;1.25;1.00;;;;;;;;5077259;27;45333;-73
2023/12/18 06:15:57;;;;;;;;;1.00;0.75;;;;;;;;5077406;27;45269;-72
2023/12/18 06:18:22;;;;;;;;;1.00;1.00;;;;;;;;5077364;28;45482;-73
2023/12/18 06:20:48;;;;;;;;;0.00;0.00;;;;;;;;5077597;27;45477;-73
2023/12/18 06:23:13;;;;;;;;;0.00;0.00;;;;;;;;5080028;27;45417;-72
2023/12/18 06:25:38;;;;;;;;;0.00;0.00;;;;;;;;5081123;27;45321;-73
2023/12/18 06:28:04;;;;;;;;;2.00;2.00;;;;;;;;5080949;27;45334;-72
2023/12/18 06:30:29;;;;;;;;;0.25;0.00;;;;;;;;5080895;27;45154;-73
2023/12/18 06:32:55;;;;;;;;;0.00;0.00;;;;;;;;5080578;27;46183;-73
2023/12/18 06:35:20;;;;;;;;;0.00;0.00;;;;;;;;5080663;27;45215;-72
2023/12/18 06:37:46;;;;;;;;;0.00;0.00;;;;;;;;5080830;27;45463;-72
2023/12/18 06:40:11;;;;;;;;;6.00;4.50;;;;;;;;5081140;27;45164;-73
2023/12/18 06:42:37;;;;;;;;;2.00;2.00;;;;;;;;5080532;27;45433;-73
2023/12/18 06:45:02;;;;;;;;;1.25;1.00;;;;;;;;5080642;27;45482;-73
2023/12/18 06:47:29;;;;;;;;;0.75;0.75;;;;;;;;5080764;27;45803;-73
2023/12/18 06:49:54;;;;;;;;;1.00;0.50;;;;;;;;5080835;27;45302;-73
2023/12/18 06:52:19;;;;;;;;;0.75;0.50;;;;;;;;5080168;27;46091;-73
2023/12/18 06:54:45;;;;;;;;;1.00;1.00;;;;;;;;5080164;27;45518;-73
2023/12/18 06:57:12;;;;;;;;;0.75;0.75;;;;;;;;5084770;27;45316;-70
2023/12/18 06:59:38;;;;;;;;;1.25;1.25;;;;;;;;5100919;27;45450;-72
2023/12/18 07:02:03;;;;;;;;;3.00;2.00;;;;;;;;5100429;27;46114;-72
2023/12/18 07:04:29;;;;;;;;;2.00;2.00;;;;;;;;5100641;27;45301;-72
2023/12/18 07:06:54;;;;;;;;;6.00;4.50;;;;;;;;5100505;27;45433;-72
2023/12/18 07:09:20;;;;;;;;;5.25;5.00;;;;;;;;5100441;27;45250;-71
2023/12/18 07:11:45;;;;;;;;;5.50;4.75;;;;;;;;5100117;27;45653;-71
2023/12/18 07:14:11;;;;;;;;;5.75;5.00;;;;;;;;5100677;27;45276;-71
2023/12/18 07:16:36;;;;;;;;;22.50;22.50;;;;;;;;5100583;27;45411;-71
2023/12/18 07:19:01;;;;;;;;;11.50;9.25;;;;;;;;5100744;27;45270;-71
2023/12/18 07:21:27;;;;;;;;;9.00;9.00;;;;;;;;5100117;27;45408;-72
2023/12/18 07:23:52;;;;;;;;;18.75;17.25;;;;;;;;5099925;27;45380;-71
2023/12/18 07:26:18;;;;;;;;;9.00;8.00;;;;;;;;5100207;27;45475;-72
2023/12/18 07:28:45;;;;;;;;;8.75;8.75;;;;;;;;5100847;27;45306;-71
2023/12/18 07:31:10;;;;;;;;;8.00;6.00;;;;;;;;5100473;27;46278;-72
2023/12/18 07:33:36;;;;;;;;;8.00;7.00;;;;;;;;5099151;27;45457;-72
2023/12/18 07:36:02;;;;;;;;;12.50;11.75;;;;;;;;5100287;27;45417;-70
2023/12/18 07:38:29;;;;;;;;;18.50;15.25;;;;;;;;5100363;27;45510;-72
2023/12/18 07:40:55;;;;;;;;;20.50;19.00;;;;;;;;5099810;27;45482;-72
2023/12/18 07:43:20;;;;;;;;;41.25;36.25;;;;;;;;5099825;27;45673;-71
2023/12/18 07:45:45;;;;;;;;;27.50;23.75;;;;;;;;5100227;27;45453;-72
2023/12/18 07:48:11;;;;;;;;;35.50;33.75;;;;;;;;5100183;27;45437;-71
2023/12/18 07:50:37;;;;;;;;;24.00;22.75;;;;;;;;5099583;27;46014;-72
2023/12/18 07:53:02;;;;;;;;;15.00;13.00;;;;;;;;5099221;27;45435;-72
2023/12/18 07:55:28;;;;;;;;;13.50;13.00;;;;;;;;5099714;27;45287;-72
2023/12/18 07:57:53;;;;;;;;;10.25;9.50;;;;;;;;5099963;27;45412;-72
2023/12/18 08:00:19;;;;;;;;;9.00;6.50;;;;;;;;5100822;27;45479;-72
2023/12/18 08:02:44;;;;;;;;;12.00;10.25;;;;;;;;5102966;27;45496;-73
2023/12/18 08:05:09;;;;;;;;;16.25;13.00;;;;;;;;5101285;27;45632;-71
2023/12/18 08:07:36;;;;;;;;;14.50;14.25;;;;;;;;5099254;27;45275;-71
2023/12/18 08:10:02;;;;;;;;;8.00;8.00;;;;;;;;5099429;27;45423;-72
2023/12/18 08:12:27;;;;;;;;;19.00;17.00;;;;;;;;5099495;27;45952;-72
2023/12/18 08:14:54;;;;;;;;;34.50;31.00;;;;;;;;5099675;27;45350;-71
2023/12/18 08:17:19;;;;;;;;;36.50;34.00;;;;;;;;5099653;27;45313;-71
2023/12/18 08:19:45;;;;;;;;;26.75;25.00;;;;;;;;5099409;27;45635;-71
2023/12/18 08:22:11;;;;;;;;;37.50;28.50;;;;;;;;5099333;27;45312;-72
2023/12/18 08:24:37;;;;;;;;;33.00;30.50;;;;;;;;5096954;27;45465;-71
2023/12/18 08:27:02;;;;;;;;;27.00;25.00;;;;;;;;5099101;27;45221;-72
2023/12/18 08:29:29;;;;;;;;;23.50;20.00;;;;;;;;5099047;27;46189;-71
2023/12/18 08:31:55;;;;;;;;;18.50;16.00;;;;;;;;5099098;27;45478;-72
2023/12/18 08:34:21;;;;;;;;;25.50;25.00;;;;;;;;5099076;27;45506;-72
2023/12/18 08:36:46;;;;;;;;;53.25;44.25;;;;;;;;5099307;27;45465;-72
2023/12/18 08:39:11;;;;;;;;;32.00;28.25;;;;;;;;5098749;27;46128;-72
2023/12/18 08:41:38;;;;;;;;;39.00;32.25;;;;;;;;5098618;27;45354;-71
2023/12/18 08:44:04;;;;;;;;;23.50;22.00;;;;;;;;5098208;27;45604;-70
2023/12/18 08:46:29;;;;;;;;;24.50;20.50;;;;;;;;5097096;27;45751;-72
2023/12/18 08:48:54;;;;;;;;;24.75;18.25;;;;;;;;5098215;27;45356;-71
2023/12/18 08:51:20;;;;;;;;;21.25;20.00;;;;;;;;5098836;27;45287;-72
2023/12/18 08:53:45;;;;;;;;;36.75;30.75;;;;;;;;5098854;27;45151;-71
2023/12/18 08:56:11;;;;;;;;;30.00;23.75;;;;;;;;5098889;27;45290;-71
2023/12/18 08:58:39;;;;;;;;;57.00;43.75;;;;;;;;5098532;27;45964;-71
2023/12/18 09:01:05;;;;;;;;;67.50;49.00;;;;;;;;5098667;27;45460;-71
2023/12/18 09:03:35;;;;;;;;;55.75;44.00;;;;;;;;5098784;27;45292;-71
2023/12/18 09:06:00;;;;;;;;;51.00;42.00;;;;;;;;5098761;27;45510;-71
2023/12/18 09:08:26;;;;;;;;;40.00;37.50;;;;;;;;5098519;27;45482;-72
2023/12/18 09:10:51;;;;;;;;;33.00;29.00;;;;;;;;5098617;27;45279;-72
2023/12/18 09:13:16;;;;;;;;;22.25;21.50;;;;;;;;5098816;27;45278;-71
2023/12/18 09:15:42;;;;;;;;;30.00;26.00;;;;;;;;5098749;27;45503;-71
2023/12/18 09:18:08;;;;;;;;;29.25;25.25;;;;;;;;5098060;27;46132;-71
2023/12/18 09:20:33;;;;;;;;;32.00;23.25;;;;;;;;5098225;27;45664;-71
2023/12/18 09:22:59;;;;;;;;;22.75;19.50;;;;;;;;5098494;27;45390;-71
2023/12/18 09:25:24;;;;;;;;;16.50;13.25;;;;;;;;5098540;27;45525;-71
2023/12/18 09:27:49;;;;;;;;;50.00;42.75;;;;;;;;5098319;27;45594;-71
2023/12/18 09:30:15;;;;;;;;;9.50;8.00;;;;;;;;5098135;27;45421;-71
2023/12/18 09:32:40;;;;;;;;;8.00;6.50;;;;;;;;5098351;27;45437;-71
2023/12/18 09:35:06;;;;;;;;;8.50;8.50;;;;;;;;5097118;27;45509;-71
2023/12/18 09:37:31;;;;;;;;;7.00;6.00;;;;;;;;5098057;27;46205;-71
2023/12/18 09:39:56;;;;;;;;;13.75;13.00;;;;;;;;5097974;27;45396;-71
2023/12/18 09:42:22;;;;;;;;;13.75;13.00;;;;;;;;5095210;27;45399;-72
2023/12/18 09:44:48;;;;;;;;;12.75;12.25;;;;;;;;5097075;27;45219;-72
2023/12/18 09:47:14;;;;;;;;;13.25;12.50;;;;;;;;5087341;27;45520;-73
2023/12/18 09:49:40;;;;;;;;;15.75;15.00;;;;;;;;5090352;27;45188;-73
2023/12/18 09:52:08;;;;;;;;;13.50;12.00;;;;;;;;5080642;27;45451;-72
2023/12/18 09:54:34;;;;;;;;;8.25;8.00;;;;;;;;5090438;27;45511;-73
2023/12/18 09:57:05;;;;;;;;;10.00;9.00;;;;;;;;5096875;27;46110;-72
2023/12/18 09:59:30;;;;;;;;;23.75;20.75;;;;;;;;5097404;27;45446;-72
2023/12/18 10:01:56;;;;;;;;;60.50;47.75;;;;;;;;5097067;27;45645;-72
2023/12/18 10:04:21;;;;;;;;;41.75;35.00;;;;;;;;5097885;27;45399;-72
2023/12/18 10:06:48;;;;;;;;;46.00;38.00;;;;;;;;5097232;27;45391;-71
2023/12/18 10:09:14;;;;;;;;;49.25;40.75;;;;;;;;5096917;27;45287;-72
2023/12/18 10:11:41;;;;;;;;;29.25;27.25;;;;;;;;5096870;27;45483;-72
2023/12/18 10:14:06;;;;;;;;;39.00;34.25;;;;;;;;5096928;27;45432;-72
2023/12/18 10:16:32;;;;;;;;;33.75;32.50;;;;;;;;5096541;27;45853;-72
2023/12/18 10:18:58;;;;;;;;;31.75;31.00;;;;;;;;5096939;27;45368;-72
2023/12/18 10:21:24;;;;;;;;;35.00;31.50;;;;;;;;5097495;27;45519;-71
2023/12/18 10:23:53;;;;;;;;;19.75;18.00;;;;;;;;5097533;27;45523;-69
2023/12/18 10:26:18;;;;;;;;;9.00;7.75;;;;;;;;5096919;27;46290;-71
2023/12/18 10:28:45;;;;;;;;;7.00;6.75;;;;;;;;5096334;27;45477;-71
2023/12/18 10:31:10;;;;;;;;;9.25;8.00;;;;;;;;5097114;27;45320;-72
2023/12/18 10:33:37;;;;;;;;;11.00;10.75;;;;;;;;5096447;27;45502;-71
2023/12/18 10:36:04;;;;;;;;;12.75;11.00;;;;;;;;5096126;27;46202;-72
2023/12/18 10:38:30;;;;;;;;;14.75;14.00;;;;;;;;5096318;27;45535;-72
2023/12/18 10:40:59;;;;;;;;;16.50;14.25;;;;;;;;5096307;27;45429;-72
2023/12/18 10:43:24;;;;;;;;;18.00;16.75;;;;;;;;5094319;27;45422;-72
2023/12/18 10:45:52;;;;;;;;;14.00;13.75;;;;;;;;5094812;27;47616;-72
2023/12/18 10:48:18;;;;;;;;;18.00;15.00;;;;;;;;5096352;27;45319;-72
2023/12/18 10:50:44;;;;;;;;;14.75;14.00;;;;;;;;5095064;27;45506;-72
2023/12/18 10:53:11;;;;;;;;;15.00;14.50;;;;;;;;5096321;27;45470;-72
2023/12/18 10:55:37;;;;;;;;;17.00;15.25;;;;;;;;5096038;27;46047;-72
2023/12/18 10:58:04;;;;;;;;;22.50;21.50;;;;;;;;5095843;27;45478;-71
2023/12/18 11:00:31;;;;;;;;;24.50;22.00;;;;;;;;5096215;27;45483;-72
2023/12/18 11:02:58;;;;;;;;;27.50;24.00;;;;;;;;5096312;27;45392;-72
2023/12/18 11:05:24;;;;;;;;;34.25;30.75;;;;;;;;5096160;27;46100;-72
2023/12/18 11:07:49;;;;;;;;;28.25;27.75;;;;;;;;5095934;27;45771;-72
2023/12/18 11:10:15;;;;;;;;;24.50;23.00;;;;;;;;5098868;27;46371;-72
2023/12/18 11:12:41;;;;;;;;;22.75;20.25;;;;;;;;5099596;27;45424;-73
2023/12/18 11:15:11;;;;;;;;;15.50;15.25;;;;;;;;5099966;27;45449;-72
2023/12/18 11:17:39;;;;;;;;;26.50;20.25;;;;;;;;5100259;27;46035;-73
2023/12/18 11:20:05;;;;;;;;;10.50;8.75;;;;;;;;5099017;27;45444;-72
2023/12/18 11:22:43;;;;;;;;;12.25;11.50;;;;;;;;5099836;27;45291;-73
2023/12/18 11:25:08;;;;;;;;;15.00;15.00;;;;;;;;5099600;27;45357;-73
2023/12/18 11:27:35;;;;;;;;;10.25;8.75;;;;;;;;5099613;27;45674;-73
2023/12/18 11:30:00;;;;;;;;;7.00;6.00;;;;;;;;5100277;27;45460;-72
2023/12/18 11:32:45;;;;;;;;;5.00;4.00;;;;;;;;5100597;27;45219;-72
2023/12/18 11:35:11;;;;;;;;;4.50;3.00;;;;;;;;5099841;27;45384;-73
2023/12/18 11:37:41;;;;;;;;;5.00;4.50;;;;;;;;5099867;27;45475;-72
2023/12/18 11:40:26;;;;;;;;;6.25;5.50;;;;;;;;5099811;27;45373;-73
2023/12/18 11:42:52;;;;;;;;;8.00;7.00;;;;;;;;5098730;27;45322;-73
2023/12/18 11:45:19;;;;;;;;;9.00;8.25;;;;;;;;5099804;27;45601;-72
2023/12/18 11:47:46;;;;;;;;;8.67;7.00;;;;;;;;5100082;27;45466;-72
2023/12/18 11:50:11;;;;;;;;;7.67;6.00;;;;;;;;5100013;27;45357;-73
2023/12/18 11:52:36;;;;;;;;;6.75;5.75;;;;;;;;5099895;27;45305;-72
2023/12/18 11:55:02;;;;;;;;;6.75;6.50;;;;;;;;5099698;27;45386;-72
2023/12/18 11:57:27;;;;;;;;;5.00;4.00;;;;;;;;5100057;27;45489;-73
2023/12/18 11:59:53;;;;;;;;;3.00;3.00;;;;;;;;5099839;27;45301;-73
2023/12/18 12:02:19;;;;;;;;;4.00;3.00;;;;;;;;5100019;27;45340;-72
2023/12/18 12:04:46;;;;;;;;;4.67;4.67;;;;;;;;5099696;27;46059;-73
2023/12/18 12:07:12;;;;;;;;;4.67;3.67;;;;;;;;5099466;27;45171;-72
2023/12/18 12:09:37;;;;;;;;;2.67;2.67;;;;;;;;5099738;27;45508;-73
2023/12/18 12:12:03;;;;;;;;;3.00;2.33;;;;;;;;5099701;27;45263;-72
2023/12/18 12:14:28;;;;;;;;;3.00;3.00;;;;;;;;5099646;27;45430;-72
2023/12/18 12:17:03;;;;;;;;;3.00;3.00;;;;;;;;5098147;27;45354;-73
2023/12/18 12:19:34;;;;;;;;;5.33;4.67;;;;;;;;5099598;27;45481;-73
2023/12/18 12:22:00;;;;;;;;;3.67;3.00;;;;;;;;5099929;27;45440;-73
2023/12/18 12:24:25;;;;;;;;;3.33;3.33;;;;;;;;5098055;27;46883;-72
2023/12/18 12:26:51;;;;;;;;;4.00;4.00;;;;;;;;5097994;27;45277;-72
2023/12/18 12:29:16;;;;;;;;;3.00;3.00;;;;;;;;5099361;27;45453;-73
2023/12/18 12:31:42;;;;;;;;;3.67;3.67;;;;;;;;5098134;27;45507;-72
2023/12/18 12:34:11;;;;;;;;;5.00;4.00;;;;;;;;5099050;27;45286;-72
2023/12/18 12:36:36;;;;;;;;;2.00;2.00;;;;;;;;5099237;27;45382;-72
2023/12/18 12:39:04;;;;;;;;;3.00;3.00;;;;;;;;5099389;27;45376;-73
2023/12/18 12:41:29;;;;;;;;;3.33;3.33;;;;;;;;5099798;27;45326;-72
2023/12/18 12:43:57;;;;;;;;;3.25;3.00;;;;;;;;5098769;27;46042;-72
2023/12/18 12:46:23;;;;;;;;;4.25;4.00;;;;;;;;5099019;27;45361;-73
2023/12/18 12:48:49;;;;;;;;;3.33;3.00;;;;;;;;5098760;27;45469;-72
2023/12/18 12:51:14;;;;;;;;;3.33;3.00;;;;;;;;5099089;27;45441;-72
2023/12/18 12:53:41;;;;;;;;;4.00;3.00;;;;;;;;5098367;27;46021;-72
2023/12/18 12:56:07;;;;;;;;;4.00;4.00;;;;;;;;5098688;27;45524;-72
2023/12/18 12:58:33;;;;;;;;;3.00;3.00;;;;;;;;5099197;27;45491;-72
2023/12/18 13:00:59;;;;;;;;;5.67;5.00;;;;;;;;5099309;27;45362;-72
2023/12/18 13:03:26;;;;;;;;;4.00;3.67;;;;;;;;5098447;27;46140;-72
2023/12/18 13:05:51;;;;;;;;;4.00;4.00;;;;;;;;5098667;27;45378;-73
2023/12/18 13:08:16;;;;;;;;;6.00;5.00;;;;;;;;5098714;27;45230;-73
2023/12/18 13:10:42;;;;;;;;;4.00;4.00;;;;;;;;5098260;27;45292;-72
2023/12/18 13:13:07;;;;;;;;;3.00;3.00;;;;;;;;5097859;27;45273;-72
2023/12/18 13:15:35;;;;;;;;;5.75;4.00;;;;;;;;5098518;27;45479;-72
2023/12/18 13:18:00;;;;;;;;;5.00;5.00;;;;;;;;5098284;27;45402;-72
2023/12/18 13:20:26;;;;;;;;;5.00;4.00;;;;;;;;5097012;27;45370;-73
2023/12/18 13:22:51;;;;;;;;;4.00;4.00;;;;;;;;5095639;27;46133;-73
2023/12/18 13:25:17;;;;;;;;;5.00;5.00;;;;;;;;5098490;27;45465;-72
2023/12/18 13:27:43;;;;;;;;;4.00;4.00;;;;;;;;5084610;27;45828;-73
2023/12/18 13:30:09;;;;;;;;;4.00;4.00;;;;;;;;5076563;28;45519;-73
2023/12/18 13:32:36;;;;;;;;;6.00;4.00;;;;;;;;5076756;27;45937;-73
2023/12/18 13:35:01;;;;;;;;;5.00;5.00;;;;;;;;5078106;27;45334;-73
2023/12/18 13:37:27;;;;;;;;;8.33;7.00;;;;;;;;5077841;27;45203;-72
2023/12/18 13:39:53;;;;;;;;;5.67;5.67;;;;;;;;5078064;27;45346;-73
2023/12/18 13:42:18;;;;;;;;;4.00;4.00;;;;;;;;5076203;28;47972;-73
2023/12/18 13:44:44;;;;;;;;;8.00;7.00;;;;;;;;5077534;27;45215;-72
2023/12/18 13:47:09;;;;;;;;;6.00;6.00;;;;;;;;5077652;27;45289;-73
2023/12/18 13:49:36;;;;;;;;;5.33;5.00;;;;;;;;5077997;27;45407;-72
2023/12/18 13:52:01;;;;;;;;;6.00;6.00;;;;;;;;5077505;27;45989;-73
2023/12/18 13:54:26;;;;;;;;;6.67;5.33;;;;;;;;5077096;27;45327;-72
2023/12/18 13:56:52;;;;;;;;;4.67;4.67;;;;;;;;5077566;27;45511;-72
2023/12/18 13:59:18;;;;;;;;;7.33;6.33;;;;;;;;5077407;27;45596;-73
2023/12/18 14:01:44;;;;;;;;;4.33;4.33;;;;;;;;5075480;28;47772;-73
2023/12/18 14:04:10;;;;;;;;;14.00;13.00;;;;;;;;5077243;27;45370;-73
2023/12/18 14:06:35;;;;;;;;;13.50;13.00;;;;;;;;5077779;27;45323;-72
2023/12/18 14:09:00;;;;;;;;;9.00;8.25;;;;;;;;5077587;27;45448;-72
2023/12/18 14:11:26;;;;;;;;;15.00;11.25;;;;;;;;5077178;27;45931;-73
2023/12/18 14:13:52;;;;;;;;;7.33;7.33;;;;;;;;5077201;27;45330;-72
2023/12/18 14:16:18;;;;;;;;;10.00;10.00;;;;;;;;5077060;27;45214;-73
2023/12/18 14:18:44;;;;;;;;;12.00;10.50;;;;;;;;5077431;27;45486;-72
2023/12/18 14:21:09;;;;;;;;;10.00;8.33;;;;;;;;5077085;28;45362;-73
2023/12/18 14:23:34;;;;;;;;;10.00;10.00;;;;;;;;5077388;27;45385;-73
2023/12/18 14:26:00;;;;;;;;;10.67;10.00;;;;;;;;5077210;27;45557;-73
2023/12/18 14:28:25;;;;;;;;;15.75;14.25;;;;;;;;5077402;27;45164;-73